sensor_id;sensor_type;location;lat;lon;timestamp;temperature;humidity
13433;DHT22;6789;47.678;9.158;2024-01-16T00:02:02;-1.10;99.90
13433;DHT22;6789;47.678;9.158;2024-01-16T00:06:54;-1.10;99.90
13433;DHT22;6789;47.678;9.158;2024-01-16T00:11:46;-1.10;99.90
13433;DHT22;6789;47.678;9.158;2024-01-16T00:16:42;-1.10;99.90
13433;DHT22;6789;47.678;9.158;2024-01-16T00:21:41;-1.20;99.90
13433;DHT22;6789;47.678;9.158;2024-01-16T00:26:34;-1.30;99.90
13433;DHT22;6789;47.678;9.158;2024-01-16T00:31:27;-1.30;99.90
13433;DHT22;6789;47.678;9.158;2024-01-16T00:36:19;-1.40;99.90
13433;DHT22;6789;47.678;9.158;2024-01-16T00:41:12;-1.40;99.90
13433;DHT22;6789;47.678;9.158;2024-01-16T00:46:05;-1.50;99.90
13433;DHT22;6789;47.678;9.158;2024-01-16T00:50:57;-1.40;99.90
13433;DHT22;6789;47.678;9.158;2024-01-16T00:55:49;-1.40;99.90
13433;DHT22;6789;47.678;9.158;2024-01-16T01:00:41;-1.40;99.90
13433;DHT22;6789;47.678;9.158;2024-01-16T01:05:33;-1.30;99.90
13433;DHT22;6789;47.678;9.158;2024-01-16T01:10:25;-1.10;99.90
13433;DHT22;6789;47.678;9.158;2024-01-16T01:15:17;-1.00;99.90
13433;DHT22;6789;47.678;9.158;2024-01-16T01:20:09;-0.90;99.90
13433;DHT22;6789;47.678;9.158;2024-01-16T01:25:04;-0.80;99.90
13433;DHT22;6789;47.678;9.158;2024-01-16T01:29:56;-0.70;99.90
13433;DHT22;6789;47.678;9.158;2024-01-16T01:34:49;-0.60;99.90
13433;DHT22;6789;47.678;9.158;2024-01-16T01:39:41;-0.50;99.90
13433;DHT22;6789;47.678;9.158;2024-01-16T01:44:33;-0.50;99.90
13433;DHT22;6789;47.678;9.158;2024-01-16T01:49:25;-0.40;99.90
13433;DHT22;6789;47.678;9.158;2024-01-16T01:54:19;-0.30;99.90
13433;DHT22;6789;47.678;9.158;2024-01-16T01:59:14;-0.30;99.90
13433;DHT22;6789;47.678;9.158;2024-01-16T02:04:14;-0.30;99.90
13433;DHT22;6789;47.678;9.158;2024-01-16T02:09:07;-0.20;99.90
13433;DHT22;6789;47.678;9.158;2024-01-16T02:13:59;-0.20;99.90
13433;DHT22;6789;47.678;9.158;2024-01-16T02:18:52;-0.20;99.90
13433;DHT22;6789;47.678;9.158;2024-01-16T02:23:44;-0.30;99.90
13433;DHT22;6789;47.678;9.158;2024-01-16T02:28:36;-0.20;99.90
13433;DHT22;6789;47.678;9.158;2024-01-16T02:33:28;-0.20;99.90
13433;DHT22;6789;47.678;9.158;2024-01-16T02:38:20;-0.40;99.90
13433;DHT22;6789;47.678;9.158;2024-01-16T02:43:11;-0.60;99.90
13433;DHT22;6789;47.678;9.158;2024-01-16T02:48:03;-0.70;99.90
13433;DHT22;6789;47.678;9.158;2024-01-16T02:52:55;-0.70;99.90
13433;DHT22;6789;47.678;9.158;2024-01-16T02:57:47;-0.80;99.90
13433;DHT22;6789;47.678;9.158;2024-01-16T03:02:39;-0.70;99.90
13433;DHT22;6789;47.678;9.158;2024-01-16T03:07:32;-0.70;99.90
13433;DHT22;6789;47.678;9.158;2024-01-16T03:12:24;-0.60;99.90
13433;DHT22;6789;47.678;9.158;2024-01-16T03:17:16;-0.60;99.90
13433;DHT22;6789;47.678;9.158;2024-01-16T03:22:08;-0.50;99.90
13433;DHT22;6789;47.678;9.158;2024-01-16T03:27:00;-0.60;99.90
13433;DHT22;6789;47.678;9.158;2024-01-16T03:31:51;-0.60;99.90
13433;DHT22;6789;47.678;9.158;2024-01-16T03:36:44;-0.50;99.90
13433;DHT22;6789;47.678;9.158;2024-01-16T03:41:36;-0.40;99.90
13433;DHT22;6789;47.678;9.158;2024-01-16T03:46:28;-0.30;99.90
13433;DHT22;6789;47.678;9.158;2024-01-16T03:51:19;-0.30;99.90
13433;DHT22;6789;47.678;9.158;2024-01-16T03:56:11;-0.30;99.90
13433;DHT22;6789;47.678;9.158;2024-01-16T04:01:03;-0.30;99.90
13433;DHT22;6789;47.678;9.158;2024-01-16T04:05:55;-0.20;99.90
13433;DHT22;6789;47.678;9.158;2024-01-16T04:10:47;-0.20;99.90
13433;DHT22;6789;47.678;9.158;2024-01-16T04:15:39;-0.20;99.90
13433;DHT22;6789;47.678;9.158;2024-01-16T04:20:31;-0.20;99.90
13433;DHT22;6789;47.678;9.158;2024-01-16T04:25:23;-0.20;99.90
13433;DHT22;6789;47.678;9.158;2024-01-16T04:30:15;-0.10;99.90
13433;DHT22;6789;47.678;9.158;2024-01-16T04:35:08;-0.20;99.90
13433;DHT22;6789;47.678;9.158;2024-01-16T04:40:00;-0.30;99.90
13433;DHT22;6789;47.678;9.158;2024-01-16T04:44:52;-0.30;99.90
13433;DHT22;6789;47.678;9.158;2024-01-16T04:49:44;-0.20;99.90
13433;DHT22;6789;47.678;9.158;2024-01-16T04:54:35;-0.20;99.90
13433;DHT22;6789;47.678;9.158;2024-01-16T04:59:27;-0.30;99.90
13433;DHT22;6789;47.678;9.158;2024-01-16T05:04:19;-0.30;99.90
13433;DHT22;6789;47.678;9.158;2024-01-16T05:09:11;-0.30;99.90
13433;DHT22;6789;47.678;9.158;2024-01-16T05:14:03;-0.10;99.90
13433;DHT22;6789;47.678;9.158;2024-01-16T05:18:55;-0.20;99.90
13433;DHT22;6789;47.678;9.158;2024-01-16T05:23:47;-0.30;99.90
13433;DHT22;6789;47.678;9.158;2024-01-16T05:28:39;-0.30;99.90
13433;DHT22;6789;47.678;9.158;2024-01-16T05:33:31;-0.40;99.90
13433;DHT22;6789;47.678;9.158;2024-01-16T05:38:24;-0.50;99.90
13433;DHT22;6789;47.678;9.158;2024-01-16T05:43:16;-0.50;99.90
13433;DHT22;6789;47.678;9.158;2024-01-16T05:48:07;-0.60;99.90
13433;DHT22;6789;47.678;9.158;2024-01-16T05:53:00;-0.80;99.90
13433;DHT22;6789;47.678;9.158;2024-01-16T05:57:52;-0.70;99.90
13433;DHT22;6789;47.678;9.158;2024-01-16T06:02:44;-0.80;99.90
13433;DHT22;6789;47.678;9.158;2024-01-16T06:07:36;-0.80;99.90
13433;DHT22;6789;47.678;9.158;2024-01-16T06:12:28;-0.70;99.90
13433;DHT22;6789;47.678;9.158;2024-01-16T06:17:19;-0.70;99.90
13433;DHT22;6789;47.678;9.158;2024-01-16T06:22:11;-0.70;99.90
13433;DHT22;6789;47.678;9.158;2024-01-16T06:27:06;-0.70;99.90
13433;DHT22;6789;47.678;9.158;2024-01-16T06:31:58;-0.60;99.90
13433;DHT22;6789;47.678;9.158;2024-01-16T06:36:50;-0.60;99.90
13433;DHT22;6789;47.678;9.158;2024-01-16T06:41:42;-0.70;99.90
13433;DHT22;6789;47.678;9.158;2024-01-16T06:46:34;-0.70;99.90
13433;DHT22;6789;47.678;9.158;2024-01-16T06:51:27;-0.90;99.90
13433;DHT22;6789;47.678;9.158;2024-01-16T06:56:18;-0.90;99.90
13433;DHT22;6789;47.678;9.158;2024-01-16T07:01:10;-0.80;99.90
13433;DHT22;6789;47.678;9.158;2024-01-16T07:06:02;-0.70;99.90
13433;DHT22;6789;47.678;9.158;2024-01-16T07:10:55;-0.70;99.90
13433;DHT22;6789;47.678;9.158;2024-01-16T07:15:48;-0.70;99.90
13433;DHT22;6789;47.678;9.158;2024-01-16T07:20:40;-0.90;99.90
13433;DHT22;6789;47.678;9.158;2024-01-16T07:25:32;-1.00;99.90
13433;DHT22;6789;47.678;9.158;2024-01-16T07:30:24;-1.00;99.90
13433;DHT22;6789;47.678;9.158;2024-01-16T07:35:15;-1.20;99.90
13433;DHT22;6789;47.678;9.158;2024-01-16T07:40:07;-1.20;99.90
13433;DHT22;6789;47.678;9.158;2024-01-16T07:45:01;-1.10;99.90
13433;DHT22;6789;47.678;9.158;2024-01-16T07:49:55;-1.10;99.90
13433;DHT22;6789;47.678;9.158;2024-01-16T07:54:47;-1.10;99.90
13433;DHT22;6789;47.678;9.158;2024-01-16T07:59:39;-1.00;99.90
13433;DHT22;6789;47.678;9.158;2024-01-16T08:04:32;-0.80;99.90
13433;DHT22;6789;47.678;9.158;2024-01-16T08:09:24;-0.70;99.90
13433;DHT22;6789;47.678;9.158;2024-01-16T08:14:17;-0.60;99.90
13433;DHT22;6789;47.678;9.158;2024-01-16T08:19:08;-0.60;99.90
13433;DHT22;6789;47.678;9.158;2024-01-16T08:24:01;-0.60;99.90
13433;DHT22;6789;47.678;9.158;2024-01-16T08:28:54;-0.60;99.90
13433;DHT22;6789;47.678;9.158;2024-01-16T08:33:46;-0.60;99.90
13433;DHT22;6789;47.678;9.158;2024-01-16T08:38:43;-0.50;99.90
13433;DHT22;6789;47.678;9.158;2024-01-16T08:43:35;-0.50;99.90
13433;DHT22;6789;47.678;9.158;2024-01-16T08:48:27;-0.50;99.90
13433;DHT22;6789;47.678;9.158;2024-01-16T08:53:19;-0.40;99.90
13433;DHT22;6789;47.678;9.158;2024-01-16T08:58:11;-0.30;99.90
13433;DHT22;6789;47.678;9.158;2024-01-16T09:03:03;-0.20;99.90
13433;DHT22;6789;47.678;9.158;2024-01-16T09:07:56;0.00;99.90
13433;DHT22;6789;47.678;9.158;2024-01-16T09:12:48;0.10;99.90
13433;DHT22;6789;47.678;9.158;2024-01-16T09:17:40;0.20;99.90
13433;DHT22;6789;47.678;9.158;2024-01-16T09:22:33;0.20;99.90
13433;DHT22;6789;47.678;9.158;2024-01-16T09:27:24;0.40;99.90
13433;DHT22;6789;47.678;9.158;2024-01-16T09:32:16;0.50;99.90
13433;DHT22;6789;47.678;9.158;2024-01-16T09:37:08;0.50;99.90
13433;DHT22;6789;47.678;9.158;2024-01-16T09:42:00;0.60;99.90
13433;DHT22;6789;47.678;9.158;2024-01-16T09:46:53;0.80;99.90
13433;DHT22;6789;47.678;9.158;2024-01-16T09:51:47;1.00;99.90
13433;DHT22;6789;47.678;9.158;2024-01-16T09:56:42;1.10;99.90
13433;DHT22;6789;47.678;9.158;2024-01-16T10:01:36;1.10;99.90
13433;DHT22;6789;47.678;9.158;2024-01-16T10:06:30;1.30;99.90
13433;DHT22;6789;47.678;9.158;2024-01-16T10:11:23;1.50;99.90
13433;DHT22;6789;47.678;9.158;2024-01-16T10:16:15;1.50;99.90
13433;DHT22;6789;47.678;9.158;2024-01-16T10:21:21;1.40;99.90
13433;DHT22;6789;47.678;9.158;2024-01-16T10:26:13;1.30;99.90
13433;DHT22;6789;47.678;9.158;2024-01-16T10:31:07;1.60;99.90
13433;DHT22;6789;47.678;9.158;2024-01-16T10:36:14;1.80;99.90
13433;DHT22;6789;47.678;9.158;2024-01-16T10:41:12;1.80;99.90
13433;DHT22;6789;47.678;9.158;2024-01-16T10:46:13;1.70;99.90
13433;DHT22;6789;47.678;9.158;2024-01-16T10:51:07;1.60;99.90
13433;DHT22;6789;47.678;9.158;2024-01-16T10:56:01;1.70;99.90
13433;DHT22;6789;47.678;9.158;2024-01-16T11:00:54;1.50;99.90
13433;DHT22;6789;47.678;9.158;2024-01-16T11:05:48;1.40;99.90
13433;DHT22;6789;47.678;9.158;2024-01-16T11:10:42;1.50;99.90
13433;DHT22;6789;47.678;9.158;2024-01-16T11:15:35;1.50;99.90
13433;DHT22;6789;47.678;9.158;2024-01-16T11:20:30;1.60;99.90
13433;DHT22;6789;47.678;9.158;2024-01-16T11:30:50;1.80;99.90
13433;DHT22;6789;47.678;9.158;2024-01-16T11:35:42;1.80;99.90
13433;DHT22;6789;47.678;9.158;2024-01-16T11:40:35;1.80;99.90
13433;DHT22;6789;47.678;9.158;2024-01-16T11:50:27;2.20;99.90
13433;DHT22;6789;47.678;9.158;2024-01-16T11:55:34;2.30;99.90
13433;DHT22;6789;47.678;9.158;2024-01-16T12:00:28;2.20;99.90
13433;DHT22;6789;47.678;9.158;2024-01-16T12:05:24;2.20;99.90
13433;DHT22;6789;47.678;9.158;2024-01-16T12:10:21;2.10;99.90
13433;DHT22;6789;47.678;9.158;2024-01-16T12:15:18;2.00;99.90
13433;DHT22;6789;47.678;9.158;2024-01-16T12:20:18;2.10;99.90
13433;DHT22;6789;47.678;9.158;2024-01-16T12:25:10;2.00;99.90
13433;DHT22;6789;47.678;9.158;2024-01-16T12:30:05;2.30;99.90
13433;DHT22;6789;47.678;9.158;2024-01-16T12:34:59;2.30;99.90
13433;DHT22;6789;47.678;9.158;2024-01-16T12:39:50;2.50;99.90
13433;DHT22;6789;47.678;9.158;2024-01-16T12:44:43;2.60;99.90
13433;DHT22;6789;47.678;9.158;2024-01-16T12:49:41;2.70;99.90
13433;DHT22;6789;47.678;9.158;2024-01-16T12:54:37;2.70;99.90
13433;DHT22;6789;47.678;9.158;2024-01-16T12:59:29;3.00;99.90
13433;DHT22;6789;47.678;9.158;2024-01-16T13:04:21;2.90;99.90
13433;DHT22;6789;47.678;9.158;2024-01-16T13:09:13;2.90;99.90
13433;DHT22;6789;47.678;9.158;2024-01-16T13:14:09;3.00;99.90
13433;DHT22;6789;47.678;9.158;2024-01-16T13:19:01;3.10;99.90
13433;DHT22;6789;47.678;9.158;2024-01-16T13:23:55;3.20;99.90
13433;DHT22;6789;47.678;9.158;2024-01-16T13:28:47;3.30;99.90
13433;DHT22;6789;47.678;9.158;2024-01-16T13:33:39;3.10;99.90
13433;DHT22;6789;47.678;9.158;2024-01-16T13:38:31;3.20;99.90
13433;DHT22;6789;47.678;9.158;2024-01-16T13:43:23;3.00;99.90
13433;DHT22;6789;47.678;9.158;2024-01-16T13:48:15;3.00;99.90
13433;DHT22;6789;47.678;9.158;2024-01-16T13:53:08;3.00;99.90
13433;DHT22;6789;47.678;9.158;2024-01-16T13:58:00;3.10;99.90
13433;DHT22;6789;47.678;9.158;2024-01-16T14:02:53;3.00;99.90
13433;DHT22;6789;47.678;9.158;2024-01-16T14:07:48;3.00;99.90
13433;DHT22;6789;47.678;9.158;2024-01-16T14:12:45;3.30;99.90
13433;DHT22;6789;47.678;9.158;2024-01-16T14:17:38;3.10;99.90
13433;DHT22;6789;47.678;9.158;2024-01-16T14:22:30;3.30;99.90
13433;DHT22;6789;47.678;9.158;2024-01-16T14:27:21;3.20;99.90
13433;DHT22;6789;47.678;9.158;2024-01-16T14:32:16;3.20;99.90
13433;DHT22;6789;47.678;9.158;2024-01-16T14:37:08;3.40;99.90
13433;DHT22;6789;47.678;9.158;2024-01-16T14:42:00;3.20;99.90
13433;DHT22;6789;47.678;9.158;2024-01-16T14:46:53;3.20;99.90
13433;DHT22;6789;47.678;9.158;2024-01-16T14:51:46;2.90;99.90
13433;DHT22;6789;47.678;9.158;2024-01-16T14:56:39;3.00;99.90
13433;DHT22;6789;47.678;9.158;2024-01-16T15:01:31;2.90;99.90
13433;DHT22;6789;47.678;9.158;2024-01-16T15:06:23;2.90;99.90
13433;DHT22;6789;47.678;9.158;2024-01-16T15:12:21;2.80;99.90
13433;DHT22;6789;47.678;9.158;2024-01-16T15:17:13;2.70;99.90
13433;DHT22;6789;47.678;9.158;2024-01-16T15:22:05;2.60;99.90
13433;DHT22;6789;47.678;9.158;2024-01-16T15:26:58;2.50;99.90
13433;DHT22;6789;47.678;9.158;2024-01-16T15:31:50;2.30;99.90
13433;DHT22;6789;47.678;9.158;2024-01-16T15:36:44;2.30;99.90
13433;DHT22;6789;47.678;9.158;2024-01-16T15:41:37;2.10;99.90
13433;DHT22;6789;47.678;9.158;2024-01-16T15:46:29;1.90;99.90
13433;DHT22;6789;47.678;9.158;2024-01-16T15:51:21;1.70;99.90
13433;DHT22;6789;47.678;9.158;2024-01-16T15:56:13;1.50;99.90
13433;DHT22;6789;47.678;9.158;2024-01-16T16:01:05;1.40;99.90
13433;DHT22;6789;47.678;9.158;2024-01-16T16:05:56;1.30;99.90
13433;DHT22;6789;47.678;9.158;2024-01-16T16:10:48;1.20;99.90
13433;DHT22;6789;47.678;9.158;2024-01-16T16:15:40;1.10;99.90
13433;DHT22;6789;47.678;9.158;2024-01-16T16:20:33;0.90;99.90
13433;DHT22;6789;47.678;9.158;2024-01-16T16:25:25;0.70;99.90
13433;DHT22;6789;47.678;9.158;2024-01-16T16:30:17;0.70;99.90
13433;DHT22;6789;47.678;9.158;2024-01-16T16:35:10;0.50;99.90
13433;DHT22;6789;47.678;9.158;2024-01-16T16:40:02;0.30;99.90
13433;DHT22;6789;47.678;9.158;2024-01-16T16:44:56;0.20;99.90
13433;DHT22;6789;47.678;9.158;2024-01-16T16:49:49;0.00;99.90
13433;DHT22;6789;47.678;9.158;2024-01-16T16:54:41;0.00;99.90
13433;DHT22;6789;47.678;9.158;2024-01-16T16:59:37;0.00;99.90
13433;DHT22;6789;47.678;9.158;2024-01-16T17:04:30;0.00;99.90
13433;DHT22;6789;47.678;9.158;2024-01-16T17:09:22;-0.10;99.90
13433;DHT22;6789;47.678;9.158;2024-01-16T17:14:14;-0.10;99.90
13433;DHT22;6789;47.678;9.158;2024-01-16T17:24:05;-0.40;99.90
13433;DHT22;6789;47.678;9.158;2024-01-16T17:28:59;-0.40;99.90
13433;DHT22;6789;47.678;9.158;2024-01-16T17:33:52;-0.40;99.90
13433;DHT22;6789;47.678;9.158;2024-01-16T17:38:44;-0.50;99.90
13433;DHT22;6789;47.678;9.158;2024-01-16T17:43:36;-0.50;99.90
13433;DHT22;6789;47.678;9.158;2024-01-16T17:48:28;-0.60;99.90
13433;DHT22;6789;47.678;9.158;2024-01-16T17:53:21;-0.70;99.90
13433;DHT22;6789;47.678;9.158;2024-01-16T17:58:13;-0.80;99.90
13433;DHT22;6789;47.678;9.158;2024-01-16T18:03:06;-0.90;99.90
13433;DHT22;6789;47.678;9.158;2024-01-16T18:08:11;-0.90;99.90
13433;DHT22;6789;47.678;9.158;2024-01-16T18:13:04;-0.90;99.90
13433;DHT22;6789;47.678;9.158;2024-01-16T18:17:57;-0.90;99.90
13433;DHT22;6789;47.678;9.158;2024-01-16T18:22:51;-1.00;99.90
13433;DHT22;6789;47.678;9.158;2024-01-16T18:27:47;-1.00;99.90
13433;DHT22;6789;47.678;9.158;2024-01-16T18:32:43;-1.00;99.90
13433;DHT22;6789;47.678;9.158;2024-01-16T18:37:41;-1.00;99.90
13433;DHT22;6789;47.678;9.158;2024-01-16T18:42:38;-1.10;99.90
13433;DHT22;6789;47.678;9.158;2024-01-16T18:47:33;-1.10;99.90
13433;DHT22;6789;47.678;9.158;2024-01-16T18:52:26;-1.10;99.90
13433;DHT22;6789;47.678;9.158;2024-01-16T18:57:18;-1.10;99.90
13433;DHT22;6789;47.678;9.158;2024-01-16T19:02:10;-1.10;99.90
13433;DHT22;6789;47.678;9.158;2024-01-16T19:07:03;-1.10;99.90
13433;DHT22;6789;47.678;9.158;2024-01-16T19:12:03;-1.10;99.90
13433;DHT22;6789;47.678;9.158;2024-01-16T19:16:57;-1.10;99.90
13433;DHT22;6789;47.678;9.158;2024-01-16T19:21:49;-1.30;99.90
13433;DHT22;6789;47.678;9.158;2024-01-16T19:26:43;-1.20;99.90
13433;DHT22;6789;47.678;9.158;2024-01-16T19:31:35;-1.10;99.90
13433;DHT22;6789;47.678;9.158;2024-01-16T19:36:28;-1.10;99.90
13433;DHT22;6789;47.678;9.158;2024-01-16T19:41:20;-1.20;99.90
13433;DHT22;6789;47.678;9.158;2024-01-16T19:46:12;-1.30;99.90
13433;DHT22;6789;47.678;9.158;2024-01-16T19:51:04;-1.40;99.90
13433;DHT22;6789;47.678;9.158;2024-01-16T19:55:57;-1.40;99.90
13433;DHT22;6789;47.678;9.158;2024-01-16T20:00:50;-1.40;99.90
13433;DHT22;6789;47.678;9.158;2024-01-16T20:05:42;-1.40;99.90
13433;DHT22;6789;47.678;9.158;2024-01-16T20:10:34;-1.40;99.90
13433;DHT22;6789;47.678;9.158;2024-01-16T20:15:26;-1.20;99.90
13433;DHT22;6789;47.678;9.158;2024-01-16T20:20:18;-1.10;99.90
13433;DHT22;6789;47.678;9.158;2024-01-16T20:25:10;-0.80;99.90
13433;DHT22;6789;47.678;9.158;2024-01-16T20:30:07;-0.70;99.90
13433;DHT22;6789;47.678;9.158;2024-01-16T20:35:00;-0.70;99.90
13433;DHT22;6789;47.678;9.158;2024-01-16T20:39:53;-0.60;99.90
13433;DHT22;6789;47.678;9.158;2024-01-16T20:44:44;-0.50;99.90
13433;DHT22;6789;47.678;9.158;2024-01-16T20:49:36;-0.30;99.90
13433;DHT22;6789;47.678;9.158;2024-01-16T20:54:28;-0.20;99.90
13433;DHT22;6789;47.678;9.158;2024-01-16T20:59:20;-0.10;99.90
13433;DHT22;6789;47.678;9.158;2024-01-16T21:04:14;0.00;99.90
13433;DHT22;6789;47.678;9.158;2024-01-16T21:09:05;0.10;99.90
13433;DHT22;6789;47.678;9.158;2024-01-16T21:13:57;0.10;99.90
13433;DHT22;6789;47.678;9.158;2024-01-16T21:18:50;0.20;99.90
13433;DHT22;6789;47.678;9.158;2024-01-16T21:23:42;0.30;99.90
13433;DHT22;6789;47.678;9.158;2024-01-16T21:28:36;0.40;99.90
13433;DHT22;6789;47.678;9.158;2024-01-16T21:33:32;0.50;99.90
13433;DHT22;6789;47.678;9.158;2024-01-16T21:38:25;0.50;99.90
13433;DHT22;6789;47.678;9.158;2024-01-16T21:43:18;0.60;99.90
13433;DHT22;6789;47.678;9.158;2024-01-16T21:48:09;0.50;99.90
13433;DHT22;6789;47.678;9.158;2024-01-16T21:53:01;0.40;99.90
13433;DHT22;6789;47.678;9.158;2024-01-16T21:57:53;0.40;99.90
13433;DHT22;6789;47.678;9.158;2024-01-16T22:02:47;0.50;99.90
13433;DHT22;6789;47.678;9.158;2024-01-16T22:07:40;0.60;99.90
13433;DHT22;6789;47.678;9.158;2024-01-16T22:12:34;0.60;99.90
13433;DHT22;6789;47.678;9.158;2024-01-16T22:17:27;0.70;99.90
13433;DHT22;6789;47.678;9.158;2024-01-16T22:22:20;0.70;99.90
13433;DHT22;6789;47.678;9.158;2024-01-16T22:27:13;0.80;99.90
13433;DHT22;6789;47.678;9.158;2024-01-16T22:32:04;0.90;99.90
13433;DHT22;6789;47.678;9.158;2024-01-16T22:36:57;0.90;99.90
13433;DHT22;6789;47.678;9.158;2024-01-16T22:41:49;1.00;99.90
13433;DHT22;6789;47.678;9.158;2024-01-16T22:46:41;1.00;99.90
13433;DHT22;6789;47.678;9.158;2024-01-16T22:51:37;1.10;99.90
13433;DHT22;6789;47.678;9.158;2024-01-16T22:56:29;1.20;99.90
13433;DHT22;6789;47.678;9.158;2024-01-16T23:01:21;1.10;99.90
13433;DHT22;6789;47.678;9.158;2024-01-16T23:06:18;1.10;99.90
13433;DHT22;6789;47.678;9.158;2024-01-16T23:11:12;1.10;99.90
13433;DHT22;6789;47.678;9.158;2024-01-16T23:16:04;1.20;99.90
13433;DHT22;6789;47.678;9.158;2024-01-16T23:20:58;1.20;99.90
13433;DHT22;6789;47.678;9.158;2024-01-16T23:25:50;1.10;99.90
13433;DHT22;6789;47.678;9.158;2024-01-16T23:30:43;1.10;99.90
13433;DHT22;6789;47.678;9.158;2024-01-16T23:35:35;1.20;99.90
13433;DHT22;6789;47.678;9.158;2024-01-16T23:40:27;1.20;99.90
13433;DHT22;6789;47.678;9.158;2024-01-16T23:45:19;1.30;99.90
13433;DHT22;6789;47.678;9.158;2024-01-16T23:50:21;1.40;99.90
13433;DHT22;6789;47.678;9.158;2024-01-16T23:55:13;1.40;99.90
